sensor_id;sensor_type;location;lat;lon;timestamp;P1;durP1;ratioP1;P2;durP2;ratioP2
20375;SDS011;10347;51.828;6.466;2023-05-07T00:00:32;4.32;;;3.40;;
20375;SDS011;10347;51.828;6.466;2023-05-07T00:02:59;3.22;;;3.03;;
20375;SDS011;10347;51.828;6.466;2023-05-07T00:05:24;4.20;;;3.30;;
20375;SDS011;10347;51.828;6.466;2023-05-07T00:07:50;3.00;;;2.80;;
20375;SDS011;10347;51.828;6.466;2023-05-07T00:10:17;3.90;;;3.60;;
20375;SDS011;10347;51.828;6.466;2023-05-07T00:12:43;3.80;;;3.47;;
20375;SDS011;10347;51.828;6.466;2023-05-07T00:15:09;3.97;;;3.30;;
20375;SDS011;10347;51.828;6.466;2023-05-07T00:17:35;3.53;;;3.22;;
20375;SDS011;10347;51.828;6.466;2023-05-07T00:20:02;2.95;;;2.75;;
20375;SDS011;10347;51.828;6.466;2023-05-07T00:22:29;3.72;;;3.20;;
20375;SDS011;10347;51.828;6.466;2023-05-07T00:24:56;4.10;;;3.38;;
20375;SDS011;10347;51.828;6.466;2023-05-07T00:27:21;3.97;;;3.67;;
20375;SDS011;10347;51.828;6.466;2023-05-07T00:29:47;3.65;;;3.33;;
20375;SDS011;10347;51.828;6.466;2023-05-07T00:32:13;4.15;;;3.75;;
20375;SDS011;10347;51.828;6.466;2023-05-07T00:34:39;4.18;;;3.78;;
20375;SDS011;10347;51.828;6.466;2023-05-07T00:37:04;5.53;;;3.80;;
20375;SDS011;10347;51.828;6.466;2023-05-07T00:39:32;4.00;;;3.70;;
20375;SDS011;10347;51.828;6.466;2023-05-07T00:41:58;4.13;;;3.70;;
20375;SDS011;10347;51.828;6.466;2023-05-07T00:44:25;4.35;;;4.05;;
20375;SDS011;10347;51.828;6.466;2023-05-07T00:46:51;4.38;;;3.97;;
20375;SDS011;10347;51.828;6.466;2023-05-07T00:49:17;4.22;;;3.83;;
20375;SDS011;10347;51.828;6.466;2023-05-07T00:51:43;3.40;;;3.10;;
20375;SDS011;10347;51.828;6.466;2023-05-07T00:54:09;3.88;;;3.30;;
20375;SDS011;10347;51.828;6.466;2023-05-07T00:56:36;4.25;;;3.85;;
20375;SDS011;10347;51.828;6.466;2023-05-07T00:59:02;3.85;;;3.55;;
20375;SDS011;10347;51.828;6.466;2023-05-07T01:01:28;4.22;;;3.72;;
20375;SDS011;10347;51.828;6.466;2023-05-07T01:03:54;4.50;;;4.07;;
20375;SDS011;10347;51.828;6.466;2023-05-07T01:06:20;3.40;;;3.20;;
20375;SDS011;10347;51.828;6.466;2023-05-07T01:08:48;4.28;;;3.88;;
20375;SDS011;10347;51.828;6.466;2023-05-07T01:11:15;3.90;;;3.58;;
20375;SDS011;10347;51.828;6.466;2023-05-07T01:13:44;4.15;;;3.85;;
20375;SDS011;10347;51.828;6.466;2023-05-07T01:16:10;3.60;;;3.30;;
20375;SDS011;10347;51.828;6.466;2023-05-07T01:18:35;3.38;;;3.17;;
20375;SDS011;10347;51.828;6.466;2023-05-07T01:21:01;4.90;;;3.67;;
20375;SDS011;10347;51.828;6.466;2023-05-07T01:23:29;4.35;;;3.95;;
20375;SDS011;10347;51.828;6.466;2023-05-07T01:25:55;4.50;;;4.10;;
20375;SDS011;10347;51.828;6.466;2023-05-07T01:28:21;4.43;;;4.10;;
20375;SDS011;10347;51.828;6.466;2023-05-07T01:30:49;6.80;;;4.65;;
20375;SDS011;10347;51.828;6.466;2023-05-07T01:33:19;4.38;;;3.97;;
20375;SDS011;10347;51.828;6.466;2023-05-07T01:35:50;4.75;;;4.30;;
20375;SDS011;10347;51.828;6.466;2023-05-07T01:38:18;6.15;;;4.40;;
20375;SDS011;10347;51.828;6.466;2023-05-07T01:40:45;4.32;;;3.92;;
20375;SDS011;10347;51.828;6.466;2023-05-07T01:43:11;4.95;;;4.25;;
20375;SDS011;10347;51.828;6.466;2023-05-07T01:45:37;4.60;;;4.20;;
20375;SDS011;10347;51.828;6.466;2023-05-07T01:48:03;5.20;;;4.63;;
20375;SDS011;10347;51.828;6.466;2023-05-07T01:50:32;5.18;;;4.68;;
20375;SDS011;10347;51.828;6.466;2023-05-07T01:52:58;5.10;;;4.60;;
20375;SDS011;10347;51.828;6.466;2023-05-07T01:55:24;4.93;;;4.28;;
20375;SDS011;10347;51.828;6.466;2023-05-07T01:57:50;4.30;;;4.00;;
20375;SDS011;10347;51.828;6.466;2023-05-07T02:00:15;4.70;;;4.30;;
20375;SDS011;10347;51.828;6.466;2023-05-07T02:02:42;5.32;;;4.63;;
20375;SDS011;10347;51.828;6.466;2023-05-07T02:05:08;4.90;;;4.40;;
20375;SDS011;10347;51.828;6.466;2023-05-07T02:07:33;7.38;;;5.03;;
20375;SDS011;10347;51.828;6.466;2023-05-07T02:09:59;5.93;;;5.10;;
20375;SDS011;10347;51.828;6.466;2023-05-07T02:12:25;5.72;;;5.05;;
20375;SDS011;10347;51.828;6.466;2023-05-07T02:14:53;7.45;;;5.13;;
20375;SDS011;10347;51.828;6.466;2023-05-07T02:17:18;5.53;;;4.78;;
20375;SDS011;10347;51.828;6.466;2023-05-07T02:19:44;5.88;;;5.30;;
20375;SDS011;10347;51.828;6.466;2023-05-07T02:22:10;5.30;;;4.80;;
20375;SDS011;10347;51.828;6.466;2023-05-07T02:24:35;5.97;;;5.38;;
20375;SDS011;10347;51.828;6.466;2023-05-07T02:27:01;6.32;;;5.32;;
20375;SDS011;10347;51.828;6.466;2023-05-07T02:29:28;5.03;;;4.60;;
20375;SDS011;10347;51.828;6.466;2023-05-07T02:31:53;6.28;;;4.57;;
20375;SDS011;10347;51.828;6.466;2023-05-07T02:34:19;5.30;;;4.80;;
20375;SDS011;10347;51.828;6.466;2023-05-07T02:36:45;6.10;;;5.45;;
20375;SDS011;10347;51.828;6.466;2023-05-07T02:39:12;6.93;;;5.55;;
20375;SDS011;10347;51.828;6.466;2023-05-07T02:41:38;6.32;;;5.72;;
20375;SDS011;10347;51.828;6.466;2023-05-07T02:44:03;6.13;;;5.50;;
20375;SDS011;10347;51.828;6.466;2023-05-07T02:46:29;6.07;;;5.57;;
20375;SDS011;10347;51.828;6.466;2023-05-07T02:48:55;5.75;;;5.18;;
20375;SDS011;10347;51.828;6.466;2023-05-07T02:51:21;6.82;;;5.30;;
20375;SDS011;10347;51.828;6.466;2023-05-07T02:53:47;6.78;;;5.80;;
20375;SDS011;10347;51.828;6.466;2023-05-07T02:56:13;6.15;;;5.55;;
20375;SDS011;10347;51.828;6.466;2023-05-07T02:58:38;6.25;;;5.65;;
20375;SDS011;10347;51.828;6.466;2023-05-07T03:01:04;5.22;;;4.72;;
20375;SDS011;10347;51.828;6.466;2023-05-07T03:03:30;5.88;;;5.35;;
20375;SDS011;10347;51.828;6.466;2023-05-07T03:05:56;7.18;;;6.47;;
20375;SDS011;10347;51.828;6.466;2023-05-07T03:08:22;6.30;;;5.57;;
20375;SDS011;10347;51.828;6.466;2023-05-07T03:10:47;5.88;;;5.35;;
20375;SDS011;10347;51.828;6.466;2023-05-07T03:13:13;6.10;;;5.50;;
20375;SDS011;10347;51.828;6.466;2023-05-07T03:15:39;5.70;;;5.20;;
20375;SDS011;10347;51.828;6.466;2023-05-07T03:18:04;5.97;;;5.43;;
20375;SDS011;10347;51.828;6.466;2023-05-07T03:20:30;6.70;;;6.07;;
20375;SDS011;10347;51.828;6.466;2023-05-07T03:22:56;5.97;;;5.47;;
20375;SDS011;10347;51.828;6.466;2023-05-07T03:25:21;6.10;;;5.50;;
20375;SDS011;10347;51.828;6.466;2023-05-07T03:27:47;7.28;;;6.20;;
20375;SDS011;10347;51.828;6.466;2023-05-07T03:30:12;6.15;;;5.55;;
20375;SDS011;10347;51.828;6.466;2023-05-07T03:32:38;6.60;;;5.90;;
20375;SDS011;10347;51.828;6.466;2023-05-07T03:35:04;6.38;;;5.80;;
20375;SDS011;10347;51.828;6.466;2023-05-07T03:37:30;6.07;;;5.47;;
20375;SDS011;10347;51.828;6.466;2023-05-07T03:39:55;6.07;;;5.57;;
20375;SDS011;10347;51.828;6.466;2023-05-07T03:42:21;5.80;;;5.18;;
20375;SDS011;10347;51.828;6.466;2023-05-07T03:44:46;7.88;;;6.75;;
20375;SDS011;10347;51.828;6.466;2023-05-07T03:47:12;6.90;;;6.05;;
20375;SDS011;10347;51.828;6.466;2023-05-07T03:49:38;6.90;;;6.30;;
20375;SDS011;10347;51.828;6.466;2023-05-07T03:52:04;8.63;;;6.65;;
20375;SDS011;10347;51.828;6.466;2023-05-07T03:54:30;6.22;;;5.50;;
20375;SDS011;10347;51.828;6.466;2023-05-07T03:56:56;6.78;;;6.05;;
20375;SDS011;10347;51.828;6.466;2023-05-07T03:59:21;6.47;;;5.88;;
20375;SDS011;10347;51.828;6.466;2023-05-07T04:01:47;6.97;;;6.38;;
20375;SDS011;10347;51.828;6.466;2023-05-07T04:04:13;6.05;;;5.47;;
20375;SDS011;10347;51.828;6.466;2023-05-07T04:06:39;7.20;;;6.18;;
20375;SDS011;10347;51.828;6.466;2023-05-07T04:09:05;6.82;;;6.22;;
20375;SDS011;10347;51.828;6.466;2023-05-07T04:11:31;7.57;;;6.55;;
20375;SDS011;10347;51.828;6.466;2023-05-07T04:13:57;6.30;;;5.72;;
20375;SDS011;10347;51.828;6.466;2023-05-07T04:16:22;7.43;;;6.72;;
20375;SDS011;10347;51.828;6.466;2023-05-07T04:18:48;7.30;;;6.57;;
20375;SDS011;10347;51.828;6.466;2023-05-07T04:21:17;8.57;;;5.97;;
20375;SDS011;10347;51.828;6.466;2023-05-07T04:23:44;6.50;;;5.45;;
20375;SDS011;10347;51.828;6.466;2023-05-07T04:26:11;6.43;;;5.82;;
20375;SDS011;10347;51.828;6.466;2023-05-07T04:28:37;7.72;;;6.00;;
20375;SDS011;10347;51.828;6.466;2023-05-07T04:31:04;8.27;;;5.95;;
20375;SDS011;10347;51.828;6.466;2023-05-07T04:33:29;7.10;;;6.47;;
20375;SDS011;10347;51.828;6.466;2023-05-07T04:35:55;9.43;;;6.90;;
20375;SDS011;10347;51.828;6.466;2023-05-07T04:38:20;8.02;;;7.22;;
20375;SDS011;10347;51.828;6.466;2023-05-07T04:40:48;8.20;;;7.40;;
20375;SDS011;10347;51.828;6.466;2023-05-07T04:43:14;7.22;;;6.53;;
20375;SDS011;10347;51.828;6.466;2023-05-07T04:45:40;6.95;;;5.80;;
20375;SDS011;10347;51.828;6.466;2023-05-07T04:48:06;7.53;;;6.40;;
20375;SDS011;10347;51.828;6.466;2023-05-07T04:50:34;9.10;;;6.95;;
20375;SDS011;10347;51.828;6.466;2023-05-07T04:52:59;6.30;;;5.68;;
20375;SDS011;10347;51.828;6.466;2023-05-07T04:55:25;6.88;;;6.00;;
20375;SDS011;10347;51.828;6.466;2023-05-07T04:57:51;7.78;;;6.97;;
20375;SDS011;10347;51.828;6.466;2023-05-07T05:00:17;7.18;;;6.47;;
20375;SDS011;10347;51.828;6.466;2023-05-07T05:02:44;6.40;;;5.80;;
20375;SDS011;10347;51.828;6.466;2023-05-07T05:05:10;6.78;;;6.18;;
20375;SDS011;10347;51.828;6.466;2023-05-07T05:07:36;6.35;;;5.75;;
20375;SDS011;10347;51.828;6.466;2023-05-07T05:10:02;6.60;;;6.00;;
20375;SDS011;10347;51.828;6.466;2023-05-07T05:12:28;7.03;;;5.78;;
20375;SDS011;10347;51.828;6.466;2023-05-07T05:14:55;6.60;;;5.90;;
20375;SDS011;10347;51.828;6.466;2023-05-07T05:17:20;6.60;;;6.00;;
20375;SDS011;10347;51.828;6.466;2023-05-07T05:19:46;7.35;;;6.65;;
20375;SDS011;10347;51.828;6.466;2023-05-07T05:22:11;7.00;;;6.32;;
20375;SDS011;10347;51.828;6.466;2023-05-07T05:24:37;6.97;;;6.15;;
20375;SDS011;10347;51.828;6.466;2023-05-07T05:27:03;10.13;;;7.93;;
20375;SDS011;10347;51.828;6.466;2023-05-07T05:29:30;6.50;;;5.85;;
20375;SDS011;10347;51.828;6.466;2023-05-07T05:31:56;7.57;;;6.32;;
20375;SDS011;10347;51.828;6.466;2023-05-07T05:34:22;8.20;;;6.40;;
20375;SDS011;10347;51.828;6.466;2023-05-07T05:36:47;6.38;;;5.70;;
20375;SDS011;10347;51.828;6.466;2023-05-07T05:39:13;6.85;;;6.15;;
20375;SDS011;10347;51.828;6.466;2023-05-07T05:41:41;6.38;;;5.75;;
20375;SDS011;10347;51.828;6.466;2023-05-07T05:44:07;5.78;;;5.25;;
20375;SDS011;10347;51.828;6.466;2023-05-07T05:46:33;6.43;;;5.57;;
20375;SDS011;10347;51.828;6.466;2023-05-07T05:48:59;7.75;;;6.57;;
20375;SDS011;10347;51.828;6.466;2023-05-07T05:51:25;6.88;;;6.20;;
20375;SDS011;10347;51.828;6.466;2023-05-07T05:53:51;6.97;;;6.38;;
20375;SDS011;10347;51.828;6.466;2023-05-07T05:56:16;7.50;;;6.38;;
20375;SDS011;10347;51.828;6.466;2023-05-07T05:58:42;6.53;;;5.90;;
20375;SDS011;10347;51.828;6.466;2023-05-07T06:01:08;6.70;;;6.00;;
20375;SDS011;10347;51.828;6.466;2023-05-07T06:03:33;7.90;;;6.20;;
20375;SDS011;10347;51.828;6.466;2023-05-07T06:05:59;9.57;;;7.20;;
20375;SDS011;10347;51.828;6.466;2023-05-07T06:08:30;8.15;;;6.70;;
20375;SDS011;10347;51.828;6.466;2023-05-07T06:10:56;8.35;;;6.90;;
20375;SDS011;10347;51.828;6.466;2023-05-07T06:13:22;7.18;;;6.43;;
20375;SDS011;10347;51.828;6.466;2023-05-07T06:15:48;8.18;;;7.07;;
20375;SDS011;10347;51.828;6.466;2023-05-07T06:18:14;9.65;;;6.68;;
20375;SDS011;10347;51.828;6.466;2023-05-07T06:20:40;6.35;;;5.65;;
20375;SDS011;10347;51.828;6.466;2023-05-07T06:23:06;9.80;;;6.85;;
20375;SDS011;10347;51.828;6.466;2023-05-07T06:25:31;8.05;;;7.00;;
20375;SDS011;10347;51.828;6.466;2023-05-07T06:27:57;7.85;;;7.10;;
20375;SDS011;10347;51.828;6.466;2023-05-07T06:30:22;8.25;;;7.00;;
20375;SDS011;10347;51.828;6.466;2023-05-07T06:32:48;10.65;;;7.50;;
20375;SDS011;10347;51.828;6.466;2023-05-07T06:35:14;10.85;;;7.55;;
20375;SDS011;10347;51.828;6.466;2023-05-07T06:37:40;8.68;;;6.80;;
20375;SDS011;10347;51.828;6.466;2023-05-07T06:40:07;9.25;;;8.30;;
20375;SDS011;10347;51.828;6.466;2023-05-07T06:42:33;11.77;;;7.80;;
20375;SDS011;10347;51.828;6.466;2023-05-07T06:45:00;9.43;;;7.68;;
20375;SDS011;10347;51.828;6.466;2023-05-07T06:47:25;8.25;;;7.35;;
20375;SDS011;10347;51.828;6.466;2023-05-07T06:49:51;9.65;;;7.90;;
20375;SDS011;10347;51.828;6.466;2023-05-07T06:52:17;8.27;;;7.15;;
20375;SDS011;10347;51.828;6.466;2023-05-07T06:54:42;9.40;;;7.80;;
20375;SDS011;10347;51.828;6.466;2023-05-07T06:57:08;8.65;;;6.85;;
20375;SDS011;10347;51.828;6.466;2023-05-07T06:59:33;10.63;;;7.18;;
20375;SDS011;10347;51.828;6.466;2023-05-07T07:01:59;9.23;;;7.53;;
20375;SDS011;10347;51.828;6.466;2023-05-07T07:04:24;9.73;;;7.55;;
20375;SDS011;10347;51.828;6.466;2023-05-07T07:06:51;13.13;;;8.90;;
20375;SDS011;10347;51.828;6.466;2023-05-07T07:09:18;7.70;;;6.90;;
20375;SDS011;10347;51.828;6.466;2023-05-07T07:11:44;8.48;;;6.88;;
20375;SDS011;10347;51.828;6.466;2023-05-07T07:14:09;7.70;;;6.57;;
20375;SDS011;10347;51.828;6.466;2023-05-07T07:16:35;9.70;;;7.07;;
20375;SDS011;10347;51.828;6.466;2023-05-07T07:19:00;9.52;;;7.45;;
20375;SDS011;10347;51.828;6.466;2023-05-07T07:21:26;11.32;;;8.90;;
20375;SDS011;10347;51.828;6.466;2023-05-07T07:23:51;12.07;;;8.07;;
20375;SDS011;10347;51.828;6.466;2023-05-07T07:26:17;9.55;;;7.60;;
20375;SDS011;10347;51.828;6.466;2023-05-07T07:28:43;10.60;;;7.90;;
20375;SDS011;10347;51.828;6.466;2023-05-07T07:31:12;8.43;;;6.95;;
20375;SDS011;10347;51.828;6.466;2023-05-07T07:33:38;7.97;;;6.78;;
20375;SDS011;10347;51.828;6.466;2023-05-07T07:36:04;8.88;;;7.07;;
20375;SDS011;10347;51.828;6.466;2023-05-07T07:38:31;9.10;;;6.68;;
20375;SDS011;10347;51.828;6.466;2023-05-07T07:40:56;8.15;;;7.22;;
20375;SDS011;10347;51.828;6.466;2023-05-07T07:43:22;7.57;;;6.63;;
20375;SDS011;10347;51.828;6.466;2023-05-07T07:45:48;7.82;;;6.95;;
20375;SDS011;10347;51.828;6.466;2023-05-07T07:48:13;8.80;;;7.90;;
20375;SDS011;10347;51.828;6.466;2023-05-07T07:50:39;11.10;;;7.43;;
20375;SDS011;10347;51.828;6.466;2023-05-07T07:53:04;9.18;;;8.02;;
20375;SDS011;10347;51.828;6.466;2023-05-07T07:55:30;11.02;;;8.18;;
20375;SDS011;10347;51.828;6.466;2023-05-07T07:57:57;8.80;;;7.90;;
20375;SDS011;10347;51.828;6.466;2023-05-07T08:00:22;9.52;;;7.60;;
20375;SDS011;10347;51.828;6.466;2023-05-07T08:02:48;8.98;;;7.97;;
20375;SDS011;10347;51.828;6.466;2023-05-07T08:05:13;8.02;;;7.07;;
20375;SDS011;10347;51.828;6.466;2023-05-07T08:07:40;8.57;;;7.35;;
20375;SDS011;10347;51.828;6.466;2023-05-07T08:10:05;7.95;;;7.13;;
20375;SDS011;10347;51.828;6.466;2023-05-07T08:12:31;8.75;;;6.90;;
20375;SDS011;10347;51.828;6.466;2023-05-07T08:15:00;7.82;;;6.60;;
20375;SDS011;10347;51.828;6.466;2023-05-07T08:17:26;10.02;;;7.72;;
20375;SDS011;10347;51.828;6.466;2023-05-07T08:19:51;7.45;;;6.65;;
20375;SDS011;10347;51.828;6.466;2023-05-07T08:22:17;6.78;;;6.07;;
20375;SDS011;10347;51.828;6.466;2023-05-07T08:24:43;10.13;;;8.15;;
20375;SDS011;10347;51.828;6.466;2023-05-07T08:27:09;6.93;;;6.25;;
20375;SDS011;10347;51.828;6.466;2023-05-07T08:29:35;6.63;;;5.93;;
20375;SDS011;10347;51.828;6.466;2023-05-07T08:32:00;8.02;;;7.22;;
20375;SDS011;10347;51.828;6.466;2023-05-07T08:34:26;9.25;;;6.88;;
20375;SDS011;10347;51.828;6.466;2023-05-07T08:36:51;8.65;;;7.32;;
20375;SDS011;10347;51.828;6.466;2023-05-07T08:39:17;9.27;;;6.63;;
20375;SDS011;10347;51.828;6.466;2023-05-07T08:41:44;6.07;;;5.45;;
20375;SDS011;10347;51.828;6.466;2023-05-07T08:44:11;11.38;;;6.20;;
20375;SDS011;10347;51.828;6.466;2023-05-07T08:46:39;9.82;;;6.93;;
20375;SDS011;10347;51.828;6.466;2023-05-07T08:49:06;8.05;;;6.55;;
20375;SDS011;10347;51.828;6.466;2023-05-07T08:51:32;8.32;;;6.75;;
20375;SDS011;10347;51.828;6.466;2023-05-07T08:53:58;9.77;;;6.22;;
20375;SDS011;10347;51.828;6.466;2023-05-07T08:56:26;7.95;;;6.13;;
20375;SDS011;10347;51.828;6.466;2023-05-07T08:58:51;7.80;;;6.07;;
20375;SDS011;10347;51.828;6.466;2023-05-07T09:01:21;9.13;;;7.10;;
20375;SDS011;10347;51.828;6.466;2023-05-07T09:03:47;8.73;;;5.60;;
20375;SDS011;10347;51.828;6.466;2023-05-07T09:06:13;9.20;;;5.65;;
20375;SDS011;10347;51.828;6.466;2023-05-07T09:08:38;6.85;;;6.18;;
20375;SDS011;10347;51.828;6.466;2023-05-07T09:11:04;7.35;;;6.43;;
20375;SDS011;10347;51.828;6.466;2023-05-07T09:13:30;8.18;;;5.88;;
20375;SDS011;10347;51.828;6.466;2023-05-07T09:15:55;7.65;;;6.88;;
20375;SDS011;10347;51.828;6.466;2023-05-07T09:18:23;9.60;;;6.82;;
20375;SDS011;10347;51.828;6.466;2023-05-07T09:20:50;8.23;;;7.30;;
20375;SDS011;10347;51.828;6.466;2023-05-07T09:23:16;9.85;;;6.57;;
20375;SDS011;10347;51.828;6.466;2023-05-07T09:25:41;7.05;;;5.93;;
20375;SDS011;10347;51.828;6.466;2023-05-07T09:28:07;7.13;;;5.88;;
20375;SDS011;10347;51.828;6.466;2023-05-07T09:30:34;6.20;;;5.57;;
20375;SDS011;10347;51.828;6.466;2023-05-07T09:33:01;5.68;;;4.90;;
20375;SDS011;10347;51.828;6.466;2023-05-07T09:35:28;5.50;;;4.30;;
20375;SDS011;10347;51.828;6.466;2023-05-07T09:37:58;5.93;;;4.03;;
20375;SDS011;10347;51.828;6.466;2023-05-07T09:40:28;4.57;;;4.22;;
20375;SDS011;10347;51.828;6.466;2023-05-07T09:42:55;4.22;;;3.72;;
20375;SDS011;10347;51.828;6.466;2023-05-07T09:45:27;5.03;;;4.63;;
20375;SDS011;10347;51.828;6.466;2023-05-07T09:47:54;4.00;;;3.60;;
20375;SDS011;10347;51.828;6.466;2023-05-07T09:50:28;5.72;;;5.15;;
20375;SDS011;10347;51.828;6.466;2023-05-07T09:52:57;5.28;;;4.78;;
20375;SDS011;10347;51.828;6.466;2023-05-07T09:55:23;5.95;;;4.75;;
20375;SDS011;10347;51.828;6.466;2023-05-07T09:57:52;5.90;;;5.22;;
20375;SDS011;10347;51.828;6.466;2023-05-07T10:00:19;7.38;;;5.60;;
20375;SDS011;10347;51.828;6.466;2023-05-07T10:02:49;5.35;;;4.30;;
20375;SDS011;10347;51.828;6.466;2023-05-07T10:05:20;5.00;;;4.60;;
20375;SDS011;10347;51.828;6.466;2023-05-07T10:07:46;4.43;;;4.07;;
20375;SDS011;10347;51.828;6.466;2023-05-07T10:10:13;5.53;;;4.15;;
20375;SDS011;10347;51.828;6.466;2023-05-07T10:12:40;3.63;;;3.33;;
20375;SDS011;10347;51.828;6.466;2023-05-07T10:15:06;6.97;;;4.93;;
20375;SDS011;10347;51.828;6.466;2023-05-07T10:17:37;8.05;;;4.65;;
20375;SDS011;10347;51.828;6.466;2023-05-07T10:20:04;5.13;;;4.63;;
20375;SDS011;10347;51.828;6.466;2023-05-07T10:22:37;6.22;;;5.55;;
20375;SDS011;10347;51.828;6.466;2023-05-07T10:25:06;5.47;;;5.03;;
20375;SDS011;10347;51.828;6.466;2023-05-07T10:27:43;5.93;;;4.60;;
20375;SDS011;10347;51.828;6.466;2023-05-07T10:32:47;5.63;;;3.92;;
20375;SDS011;10347;51.828;6.466;2023-05-07T10:35:22;4.95;;;4.43;;
20375;SDS011;10347;51.828;6.466;2023-05-07T10:37:50;4.07;;;3.70;;
20375;SDS011;10347;51.828;6.466;2023-05-07T10:40:16;4.43;;;4.03;;
20375;SDS011;10347;51.828;6.466;2023-05-07T10:42:56;5.85;;;4.13;;
20375;SDS011;10347;51.828;6.466;2023-05-07T10:45:24;9.40;;;6.47;;
20375;SDS011;10347;51.828;6.466;2023-05-07T10:50:37;7.55;;;5.35;;
20375;SDS011;10347;51.828;6.466;2023-05-07T10:55:45;5.18;;;4.68;;
20375;SDS011;10347;51.828;6.466;2023-05-07T10:58:35;5.43;;;4.53;;
20375;SDS011;10347;51.828;6.466;2023-05-07T11:01:02;7.78;;;5.70;;
20375;SDS011;10347;51.828;6.466;2023-05-07T11:03:28;5.20;;;4.50;;
20375;SDS011;10347;51.828;6.466;2023-05-07T11:12:05;14.85;;;5.80;;
20375;SDS011;10347;51.828;6.466;2023-05-07T11:14:10;20.52;;;6.13;;
20375;SDS011;10347;51.828;6.466;2023-05-07T11:16:36;7.93;;;5.13;;
20375;SDS011;10347;51.828;6.466;2023-05-07T11:19:03;5.97;;;5.13;;
20375;SDS011;10347;51.828;6.466;2023-05-07T11:21:36;6.25;;;4.65;;
20375;SDS011;10347;51.828;6.466;2023-05-07T11:24:03;4.28;;;3.63;;
20375;SDS011;10347;51.828;6.466;2023-05-07T11:26:30;3.83;;;3.53;;
20375;SDS011;10347;51.828;6.466;2023-05-07T11:29:10;3.92;;;3.47;;
20375;SDS011;10347;51.828;6.466;2023-05-07T11:31:36;3.78;;;3.47;;
20375;SDS011;10347;51.828;6.466;2023-05-07T11:34:03;7.53;;;4.35;;
20375;SDS011;10347;51.828;6.466;2023-05-07T11:36:30;7.75;;;4.20;;
20375;SDS011;10347;51.828;6.466;2023-05-07T11:38:57;24.27;;;6.65;;
20375;SDS011;10347;51.828;6.466;2023-05-07T11:41:22;6.43;;;4.38;;
20375;SDS011;10347;51.828;6.466;2023-05-07T11:43:58;10.05;;;4.72;;
20375;SDS011;10347;51.828;6.466;2023-05-07T11:46:24;4.45;;;4.05;;
20375;SDS011;10347;51.828;6.466;2023-05-07T11:48:51;5.15;;;4.43;;
20375;SDS011;10347;51.828;6.466;2023-05-07T11:51:23;3.78;;;3.47;;
20375;SDS011;10347;51.828;6.466;2023-05-07T11:53:51;4.53;;;3.17;;
20375;SDS011;10347;51.828;6.466;2023-05-07T11:56:18;5.80;;;3.55;;
20375;SDS011;10347;51.828;6.466;2023-05-07T11:58:45;3.50;;;3.20;;
20375;SDS011;10347;51.828;6.466;2023-05-07T12:01:11;4.80;;;3.25;;
20375;SDS011;10347;51.828;6.466;2023-05-07T12:03:41;3.90;;;3.50;;
20375;SDS011;10347;51.828;6.466;2023-05-07T12:06:08;4.53;;;3.45;;
20375;SDS011;10347;51.828;6.466;2023-05-07T12:08:36;6.05;;;3.03;;
20375;SDS011;10347;51.828;6.466;2023-05-07T12:11:03;4.57;;;3.28;;
20375;SDS011;10347;51.828;6.466;2023-05-07T12:13:31;6.03;;;3.75;;
20375;SDS011;10347;51.828;6.466;2023-05-07T12:15:57;5.70;;;4.55;;
20375;SDS011;10347;51.828;6.466;2023-05-07T12:18:23;4.60;;;3.63;;
20375;SDS011;10347;51.828;6.466;2023-05-07T12:20:49;6.68;;;4.05;;
20375;SDS011;10347;51.828;6.466;2023-05-07T12:23:15;4.60;;;4.07;;
20375;SDS011;10347;51.828;6.466;2023-05-07T12:25:42;9.18;;;5.88;;
20375;SDS011;10347;51.828;6.466;2023-05-07T12:28:15;8.20;;;4.90;;
20375;SDS011;10347;51.828;6.466;2023-05-07T12:30:42;5.80;;;5.18;;
20375;SDS011;10347;51.828;6.466;2023-05-07T12:33:09;4.93;;;4.43;;
20375;SDS011;10347;51.828;6.466;2023-05-07T12:35:42;6.20;;;5.10;;
20375;SDS011;10347;51.828;6.466;2023-05-07T12:38:11;6.60;;;5.43;;
20375;SDS011;10347;51.828;6.466;2023-05-07T12:40:45;7.78;;;5.60;;
20375;SDS011;10347;51.828;6.466;2023-05-07T12:43:19;6.50;;;5.32;;
20375;SDS011;10347;51.828;6.466;2023-05-07T12:45:53;11.73;;;6.00;;
20375;SDS011;10347;51.828;6.466;2023-05-07T12:48:21;23.35;;;7.32;;
20375;SDS011;10347;51.828;6.466;2023-05-07T12:50:51;7.60;;;5.28;;
20375;SDS011;10347;51.828;6.466;2023-05-07T12:53:19;7.78;;;5.15;;
20375;SDS011;10347;51.828;6.466;2023-05-07T12:55:56;7.55;;;5.45;;
20375;SDS011;10347;51.828;6.466;2023-05-07T12:58:24;6.18;;;5.20;;
20375;SDS011;10347;51.828;6.466;2023-05-07T13:00:52;6.53;;;4.57;;
20375;SDS011;10347;51.828;6.466;2023-05-07T13:03:26;7.22;;;4.90;;
20375;SDS011;10347;51.828;6.466;2023-05-07T13:05:54;5.38;;;4.47;;
20375;SDS011;10347;51.828;6.466;2023-05-07T13:08:25;6.57;;;4.50;;
20375;SDS011;10347;51.828;6.466;2023-05-07T13:10:51;4.53;;;4.13;;
20375;SDS011;10347;51.828;6.466;2023-05-07T13:13:18;5.93;;;4.50;;
20375;SDS011;10347;51.828;6.466;2023-05-07T13:15:44;4.28;;;3.90;;
20375;SDS011;10347;51.828;6.466;2023-05-07T13:18:09;4.97;;;4.13;;
20375;SDS011;10347;51.828;6.466;2023-05-07T13:20:36;5.18;;;3.97;;
20375;SDS011;10347;51.828;6.466;2023-05-07T13:23:01;5.32;;;4.47;;
20375;SDS011;10347;51.828;6.466;2023-05-07T13:25:29;5.80;;;3.75;;
20375;SDS011;10347;51.828;6.466;2023-05-07T13:27:56;4.85;;;4.40;;
20375;SDS011;10347;51.828;6.466;2023-05-07T13:30:22;4.97;;;4.43;;
20375;SDS011;10347;51.828;6.466;2023-05-07T13:32:47;4.40;;;3.88;;
20375;SDS011;10347;51.828;6.466;2023-05-07T13:35:14;3.60;;;3.30;;
20375;SDS011;10347;51.828;6.466;2023-05-07T13:37:39;5.30;;;3.97;;
20375;SDS011;10347;51.828;6.466;2023-05-07T13:40:05;3.58;;;3.28;;
20375;SDS011;10347;51.828;6.466;2023-05-07T13:42:31;6.05;;;4.22;;
20375;SDS011;10347;51.828;6.466;2023-05-07T13:44:57;6.53;;;4.28;;
20375;SDS011;10347;51.828;6.466;2023-05-07T13:47:22;4.68;;;4.18;;
20375;SDS011;10347;51.828;6.466;2023-05-07T13:49:48;5.85;;;4.45;;
20375;SDS011;10347;51.828;6.466;2023-05-07T13:52:15;5.55;;;3.92;;
20375;SDS011;10347;51.828;6.466;2023-05-07T13:54:41;5.47;;;3.97;;
20375;SDS011;10347;51.828;6.466;2023-05-07T13:57:06;4.72;;;3.60;;
20375;SDS011;10347;51.828;6.466;2023-05-07T13:59:32;6.47;;;3.45;;
20375;SDS011;10347;51.828;6.466;2023-05-07T14:01:58;5.00;;;3.72;;
20375;SDS011;10347;51.828;6.466;2023-05-07T14:04:24;5.65;;;3.70;;
20375;SDS011;10347;51.828;6.466;2023-05-07T14:06:50;8.82;;;5.30;;
20375;SDS011;10347;51.828;6.466;2023-05-07T14:09:16;6.00;;;5.32;;
20375;SDS011;10347;51.828;6.466;2023-05-07T14:11:41;5.00;;;4.20;;
20375;SDS011;10347;51.828;6.466;2023-05-07T14:14:07;9.30;;;4.78;;
20375;SDS011;10347;51.828;6.466;2023-05-07T14:16:35;5.97;;;3.85;;
20375;SDS011;10347;51.828;6.466;2023-05-07T14:19:01;4.55;;;3.80;;
20375;SDS011;10347;51.828;6.466;2023-05-07T14:21:26;4.25;;;3.65;;
20375;SDS011;10347;51.828;6.466;2023-05-07T14:23:52;5.53;;;4.20;;
20375;SDS011;10347;51.828;6.466;2023-05-07T14:26:17;7.57;;;4.85;;
20375;SDS011;10347;51.828;6.466;2023-05-07T14:28:44;4.10;;;3.67;;
20375;SDS011;10347;51.828;6.466;2023-05-07T14:31:11;5.85;;;4.07;;
20375;SDS011;10347;51.828;6.466;2023-05-07T14:33:37;5.90;;;3.92;;
20375;SDS011;10347;51.828;6.466;2023-05-07T14:36:02;7.25;;;3.90;;
20375;SDS011;10347;51.828;6.466;2023-05-07T14:38:28;4.93;;;3.80;;
20375;SDS011;10347;51.828;6.466;2023-05-07T14:40:55;6.40;;;4.32;;
20375;SDS011;10347;51.828;6.466;2023-05-07T14:43:21;5.30;;;4.35;;
20375;SDS011;10347;51.828;6.466;2023-05-07T14:45:47;6.63;;;4.85;;
20375;SDS011;10347;51.828;6.466;2023-05-07T14:48:12;5.90;;;5.30;;
20375;SDS011;10347;51.828;6.466;2023-05-07T14:50:40;5.20;;;4.32;;
20375;SDS011;10347;51.828;6.466;2023-05-07T14:53:06;5.85;;;4.60;;
20375;SDS011;10347;51.828;6.466;2023-05-07T14:55:32;4.18;;;3.78;;
20375;SDS011;10347;51.828;6.466;2023-05-07T14:57:58;6.25;;;4.30;;